Погода Селайана 2 недели

Гуанахуато, Мексика

02 - 15 марта
  • 02марта
    Сегодня
    +12°
    +31°
    Ясно и безоблачно
    ВремяПогодаТемператураВлажностьДавлениеВетер, м/сВероятность осадков
    00:00Облачно с прояснениями+19°C38 %625 мм1.5 м/с1 %
    03:00Ясно и безоблачно+16°C47 %622 мм1.3 м/с1 %
    06:00Ясно и безоблачно+14°C52 %623 мм1.0 м/с2 %
    09:00Ясно и безоблачно+17°C39 %625 мм0.9 м/с2 %
    12:00Ясно и безоблачно+25°C23 %626 мм2.1 м/с2 %
    15:00Ясно и безоблачно+30°C16 %625 мм2.8 м/с2 %
    18:00Ясно и безоблачно+29°C13 %624 мм3.8 м/с2 %
    21:00Практически безоблачно+22°C32 %624 мм4.6 м/с2 %
  • 03марта
    Воскресенье
    +11°
    +31°
    Ясно и безоблачно
    ВремяПогодаТемператураВлажностьДавлениеВетер, м/сВероятность осадков
    00:00Ясно и безоблачно+19°C43 %623 мм1.3 м/с2 %
    03:00Ясно и безоблачно+16°C54 %622 мм2.0 м/с2 %
    06:00Ясно и безоблачно+13°C58 %622 мм1.8 м/с2 %
    09:00Ясно и безоблачно+17°C42 %624 мм1.1 м/с2 %
    12:00Ясно и безоблачно+25°C23 %625 мм2.4 м/с2 %
    15:00Ясно и безоблачно+30°C15 %624 мм3.2 м/с2 %
    18:00Ясно и безоблачно+29°C13 %622 мм4.2 м/с2 %
    21:00Ясно и безоблачно+22°C31 %623 мм4.3 м/с2 %
  • 04марта
    Понедельник
    +11°
    +31°
    Практически безоблачно
    ВремяПогодаТемператураВлажностьДавлениеВетер, м/сВероятность осадков
    00:00Ясно и безоблачно+18°C39 %622 мм1.4 м/с2 %
    03:00Небольшая облачность+16°C48 %621 мм2.3 м/с2 %
    06:00Небольшая облачность+13°C56 %620 мм1.5 м/с2 %
    09:00Небольшая облачность+17°C39 %623 мм1.3 м/с2 %
    12:00Ясно и безоблачно+25°C24 %624 мм2.5 м/с2 %
    15:00Практически безоблачно+30°C16 %623 мм3.5 м/с2 %
    18:00Ясно и безоблачно+29°C20 %622 мм5.1 м/с2 %
    21:00Ясно и безоблачно+22°C26 %622 мм3.9 м/с2 %
  • 05марта
    Вторник
    +13°
    +31°
    Облачно с прояснениями
    ВремяПогодаТемператураВлажностьДавлениеВетер, м/сВероятность осадков
    00:00Ясно и безоблачно+19°C36 %622 мм1.6 м/с2 %
    03:00Ясно и безоблачно+15°C44 %621 мм1.6 м/с2 %
    06:00Ясно и безоблачно+13°C51 %620 мм1.3 м/с2 %
    09:00Ясно и безоблачно+17°C35 %623 мм0.9 м/с2 %
    12:00Ясно и безоблачно+26°C18 %624 мм2.1 м/с2 %
    15:00Облачно с прояснениями+31°C10 %623 мм3.1 м/с2 %
    18:00Небольшая облачность+30°C8 %622 мм2.8 м/с2 %
    21:00Облачно с прояснениями+22°C18 %622 мм3.2 м/с2 %
  • 06марта
    Среда
    +13°
    +32°
    Облачно с прояснениями
    ВремяПогодаТемператураВлажностьДавлениеВетер, м/сВероятность осадков
    00:00Облачно с прояснениями+19°C31 %621 мм1.2 м/с2 %
    03:00Практически безоблачно+15°C46 %620 мм1.8 м/с2 %
    06:00Практически безоблачно+14°C46 %620 мм0.5 м/с2 %
    09:00Облачно с прояснениями+17°C36 %623 мм0.5 м/с2 %
    12:00Облачно с прояснениями+26°C18 %624 мм1.5 м/с2 %
    15:00Облачно с прояснениями+31°C12 %623 мм2.6 м/с2 %
    18:00Ясно и безоблачно+30°C14 %622 мм2.9 м/с2 %
    21:00Ясно и безоблачно+23°C20 %622 мм4.7 м/с2 %
Мы используем cookies
Соглашаюсь